Time;durP1;ratioP1;P1;durP2;ratioP2;P2;SDS_P1;SDS_P2;PMS_P1;PMS_P2;Temp;Humidity;BMP_temperature;BMP_pressure;BME280_temperature;BME280_humidity;BME280_pressure;Samples;Min_cycle;Max_cycle;Signal;HPM_P1;HPM_P2
2021/11/23 00:00:08;;;;;;;;;;;5.30;99.90;;;;;;5114153;28;19923;-49
2021/11/23 00:02:39;;;;;;;;;;;5.20;99.90;;;;;;5107061;28;19924;-49
2021/11/23 00:05:06;;;;;;;;;;;5.10;99.90;;;;;;5093983;28;19924;-50
2021/11/23 00:07:33;;;;;;;;;;;5.10;99.90;;;;;;5093896;28;19947;-49
2021/11/23 00:10:00;;;;;;;;;;;5.00;99.90;;;;;;5100934;28;19928;-50
2021/11/23 00:12:27;;;;;;;;;;;4.90;99.90;;;;;;5114019;28;19935;-49
2021/11/23 00:14:54;;;;;;;;;;;5.10;99.90;;;;;;5114201;28;19928;-49
2021/11/23 00:17:22;;;;;;;;;;;5.20;99.90;;;;;;5108657;28;20356;-50
2021/11/23 00:19:49;;;;;;;;;;;5.30;99.90;;;;;;5113756;28;19924;-53
2021/11/23 00:22:16;;;;;;;;;;;5.20;99.90;;;;;;5150508;22;19934;-55
2021/11/23 00:24:46;;;;;;;;;;;5.30;99.90;;;;;;5122244;27;19955;-55
2021/11/23 00:27:13;;;;;;;;;;;5.20;99.90;;;;;;5119909;27;20385;-54
2021/11/23 00:29:40;;;;;;;;;;;5.20;99.90;;;;;;5132627;27;19976;-54
2021/11/23 00:32:07;;;;;;;;;;;5.20;99.90;;;;;;5127086;27;19924;-54
2021/11/23 00:34:35;;;;;;;;;;;5.10;99.90;;;;;;5121144;27;20324;-55
2021/11/23 00:37:02;;;;;;;;;;;5.10;99.90;;;;;;5125920;27;21373;-54
2021/11/23 00:39:29;;;;;;;;;;;5.20;99.90;;;;;;5117580;27;19923;-55
2021/11/23 00:41:55;;;;;;;;;;;5.30;99.90;;;;;;5124797;27;20349;-56
2021/11/23 00:44:22;;;;;;;;;;;5.40;99.90;;;;;;5125680;27;20442;-55
2021/11/23 00:46:50;;;;;;;;;;;5.30;99.90;;;;;;5120327;27;19931;-55
2021/11/23 00:49:17;;;;;;;;;;;5.20;99.90;;;;;;5121868;27;20011;-54
2021/11/23 00:51:45;;;;;;;;;;;5.30;99.90;;;;;;5127314;27;19923;-55
2021/11/23 00:54:12;;;;;;;;;;;5.40;99.90;;;;;;5121377;27;19984;-54
2021/11/23 00:56:39;;;;;;;;;;;5.30;99.90;;;;;;5125777;27;19924;-55
2021/11/23 00:59:07;;;;;;;;;;;5.20;99.90;;;;;;5120938;27;19927;-54
2021/11/23 01:01:34;;;;;;;;;;;5.20;99.90;;;;;;5122640;27;20369;-55
2021/11/23 01:04:00;;;;;;;;;;;5.20;99.90;;;;;;5133338;27;19966;-54
2021/11/23 01:06:27;;;;;;;;;;;5.30;99.90;;;;;;5115141;27;20389;-55
2021/11/23 01:08:55;;;;;;;;;;;5.30;99.90;;;;;;5133643;27;19924;-55
2021/11/23 01:11:22;;;;;;;;;;;5.40;99.90;;;;;;5133233;27;19968;-54
2021/11/23 01:13:50;;;;;;;;;;;5.40;99.90;;;;;;5133530;27;19923;-55
2021/11/23 01:16:17;;;;;;;;;;;5.50;99.90;;;;;;5130250;27;19980;-54
2021/11/23 01:18:44;;;;;;;;;;;5.40;99.90;;;;;;5133209;27;19924;-54
2021/11/23 01:21:13;;;;;;;;;;;5.40;99.90;;;;;;5133025;27;19976;-55
2021/11/23 01:23:40;;;;;;;;;;;5.50;99.90;;;;;;5133169;27;19923;-55
2021/11/23 01:26:08;;;;;;;;;;;5.30;99.90;;;;;;5133432;27;19924;-55
2021/11/23 01:28:36;;;;;;;;;;;5.30;99.90;;;;;;5133304;27;19927;-56
2021/11/23 01:31:03;;;;;;;;;;;5.30;99.90;;;;;;5133303;27;20358;-54
2021/11/23 01:33:30;;;;;;;;;;;5.30;99.90;;;;;;5133554;27;19980;-55
2021/11/23 01:35:57;;;;;;;;;;;5.20;99.90;;;;;;5132469;27;19928;-54
2021/11/23 01:38:23;;;;;;;;;;;5.10;99.90;;;;;;5133184;27;20375;-55
2021/11/23 01:40:50;;;;;;;;;;;5.20;99.90;;;;;;5133016;27;20354;-55
2021/11/23 01:43:18;;;;;;;;;;;5.20;99.90;;;;;;5133395;28;19973;-55
2021/11/23 01:45:45;;;;;;;;;;;5.20;99.90;;;;;;5133160;28;19923;-54
2021/11/23 01:48:12;;;;;;;;;;;5.10;99.90;;;;;;5133275;28;20289;-55
2021/11/23 01:50:39;;;;;;;;;;;5.10;99.90;;;;;;5132618;28;19931;-54
2021/11/23 01:53:07;;;;;;;;;;;5.10;99.90;;;;;;5131203;28;19923;-54
2021/11/23 01:55:34;;;;;;;;;;;5.00;99.90;;;;;;5112596;28;19924;-54
2021/11/23 01:58:01;;;;;;;;;;;5.00;99.90;;;;;;5118091;28;20335;-54
2021/11/23 02:00:30;;;;;;;;;;;5.00;99.90;;;;;;5132926;28;20360;-54
2021/11/23 02:02:56;;;;;;;;;;;4.90;99.90;;;;;;5133186;28;19980;-54
2021/11/23 02:05:23;;;;;;;;;;;4.80;99.90;;;;;;5133028;28;20389;-54
2021/11/23 02:07:50;;;;;;;;;;;4.80;99.90;;;;;;5132505;28;19976;-55
2021/11/23 02:10:17;;;;;;;;;;;4.80;99.90;;;;;;5132931;28;19968;-55
2021/11/23 02:12:44;;;;;;;;;;;4.70;99.90;;;;;;5132806;28;19924;-54
2021/11/23 02:15:11;;;;;;;;;;;4.80;99.90;;;;;;5132792;28;20408;-54
2021/11/23 02:17:41;;;;;;;;;;;4.70;99.90;;;;;;5132807;28;20374;-55
2021/11/23 02:20:12;;;;;;;;;;;4.50;99.90;;;;;;5132845;28;19927;-55
2021/11/23 02:22:39;;;;;;;;;;;4.40;99.90;;;;;;5132744;28;19976;-55
2021/11/23 02:25:06;;;;;;;;;;;4.20;99.90;;;;;;5133111;28;20331;-54
2021/11/23 02:27:33;;;;;;;;;;;4.20;99.90;;;;;;5133090;28;19928;-55
2021/11/23 02:30:00;;;;;;;;;;;4.20;99.90;;;;;;5132650;28;19983;-55
2021/11/23 02:32:26;;;;;;;;;;;4.10;99.90;;;;;;5133601;28;19972;-54
2021/11/23 02:34:53;;;;;;;;;;;4.20;99.90;;;;;;5133753;28;20013;-54
2021/11/23 02:37:21;;;;;;;;;;;4.10;99.90;;;;;;5146118;28;19923;-55
2021/11/23 02:39:48;;;;;;;;;;;4.20;99.90;;;;;;5149098;28;19976;-55
2021/11/23 02:42:15;;;;;;;;;;;4.20;99.90;;;;;;5149858;28;19924;-55
2021/11/23 02:44:42;;;;;;;;;;;4.00;99.90;;;;;;5150170;28;19923;-55
2021/11/23 02:47:08;;;;;;;;;;;4.00;99.90;;;;;;5150247;28;19924;-54
2021/11/23 02:49:35;;;;;;;;;;;4.00;99.90;;;;;;5150428;27;20457;-57
2021/11/23 02:52:03;;;;;;;;;;;3.90;99.90;;;;;;5137936;27;20411;-54
2021/11/23 02:54:31;;;;;;;;;;;4.00;99.90;;;;;;5123064;27;19924;-54
2021/11/23 02:56:58;;;;;;;;;;;4.00;99.90;;;;;;5118656;27;19931;-55
2021/11/23 02:59:24;;;;;;;;;;;4.00;99.90;;;;;;5119554;27;20416;-54
2021/11/23 03:01:51;;;;;;;;;;;4.10;99.90;;;;;;5116259;28;19923;-54
2021/11/23 03:04:18;;;;;;;;;;;4.10;99.90;;;;;;5115531;28;19924;-54
2021/11/23 03:06:45;;;;;;;;;;;4.10;99.90;;;;;;5115383;28;19923;-54
2021/11/23 03:09:12;;;;;;;;;;;3.90;99.90;;;;;;5118614;27;19931;-54
2021/11/23 03:11:40;;;;;;;;;;;3.90;99.90;;;;;;5129135;27;20339;-54
2021/11/23 03:14:07;;;;;;;;;;;3.90;99.90;;;;;;5135047;27;20549;-54
2021/11/23 03:16:34;;;;;;;;;;;3.90;99.90;;;;;;5136014;27;19937;-54
2021/11/23 03:19:01;;;;;;;;;;;3.80;99.90;;;;;;5138674;27;19923;-55
2021/11/23 03:21:27;;;;;;;;;;;3.80;99.90;;;;;;5139532;27;19923;-55
2021/11/23 03:23:54;;;;;;;;;;;3.80;99.90;;;;;;5139948;27;19923;-54
2021/11/23 03:26:21;;;;;;;;;;;3.60;99.90;;;;;;5139409;27;20011;-54
2021/11/23 03:28:49;;;;;;;;;;;3.60;99.90;;;;;;5139920;27;19976;-55
2021/11/23 03:31:16;;;;;;;;;;;3.50;99.90;;;;;;5139638;27;19923;-54
2021/11/23 03:33:43;;;;;;;;;;;3.60;99.90;;;;;;5139539;27;20015;-54
2021/11/23 03:36:10;;;;;;;;;;;3.50;99.90;;;;;;5139622;27;19930;-55
2021/11/23 03:38:37;;;;;;;;;;;3.40;99.90;;;;;;5139592;27;19931;-54
2021/11/23 03:41:03;;;;;;;;;;;3.50;99.90;;;;;;5138954;27;19969;-54
2021/11/23 03:43:30;;;;;;;;;;;3.50;99.90;;;;;;5139693;27;20377;-54
2021/11/23 03:45:58;;;;;;;;;;;3.50;99.90;;;;;;5139528;27;19996;-54
2021/11/23 03:48:25;;;;;;;;;;;3.50;99.90;;;;;;5138263;27;20389;-54
2021/11/23 03:50:52;;;;;;;;;;;3.50;99.90;;;;;;5134677;27;19931;-54
2021/11/23 03:53:19;;;;;;;;;;;3.50;99.90;;;;;;5131958;27;20316;-54
2021/11/23 03:55:49;;;;;;;;;;;3.40;99.90;;;;;;5129984;27;19928;-54
2021/11/23 03:58:16;;;;;;;;;;;3.40;99.90;;;;;;5135158;27;19923;-55
2021/11/23 04:00:43;;;;;;;;;;;3.40;99.90;;;;;;5133497;27;19976;-54
2021/11/23 04:03:11;;;;;;;;;;;3.30;99.90;;;;;;5135203;27;19927;-54
2021/11/23 04:05:38;;;;;;;;;;;3.10;99.90;;;;;;5134841;27;19923;-54
2021/11/23 04:08:05;;;;;;;;;;;3.20;99.90;;;;;;5134916;27;19927;-54
2021/11/23 04:10:32;;;;;;;;;;;3.20;99.90;;;;;;5134269;27;19923;-54
2021/11/23 04:12:58;;;;;;;;;;;3.00;99.90;;;;;;5134766;27;19927;-55
2021/11/23 04:15:25;;;;;;;;;;;3.00;99.90;;;;;;5134530;27;19968;-54
2021/11/23 04:17:52;;;;;;;;;;;3.00;99.90;;;;;;5134642;27;19927;-54
2021/11/23 04:20:21;;;;;;;;;;;2.80;99.90;;;;;;5126730;27;19976;-57
2021/11/23 04:22:47;;;;;;;;;;;3.00;99.90;;;;;;5132890;27;20368;-54
2021/11/23 04:25:14;;;;;;;;;;;2.50;99.90;;;;;;5127011;27;19976;-54
2021/11/23 04:27:41;;;;;;;;;;;2.80;99.90;;;;;;5113850;28;19928;-55
2021/11/23 04:30:10;;;;;;;;;;;2.80;99.90;;;;;;5114017;28;19923;-55
2021/11/23 04:32:37;;;;;;;;;;;2.70;99.90;;;;;;5113793;28;19967;-55
2021/11/23 04:35:04;;;;;;;;;;;2.60;99.90;;;;;;5113825;28;19924;-55
2021/11/23 04:37:36;;;;;;;;;;;2.70;99.90;;;;;;5119469;27;19923;-55
2021/11/23 04:40:03;;;;;;;;;;;2.80;99.90;;;;;;5134086;27;20480;-57
2021/11/23 04:42:30;;;;;;;;;;;2.80;99.90;;;;;;5134249;27;19927;-54
2021/11/23 04:44:56;;;;;;;;;;;2.90;99.90;;;;;;5134271;27;19969;-54
2021/11/23 04:47:23;;;;;;;;;;;2.70;99.90;;;;;;5134235;27;19923;-55
2021/11/23 04:49:50;;;;;;;;;;;2.60;99.90;;;;;;5133210;27;19969;-55
2021/11/23 04:52:17;;;;;;;;;;;2.60;99.90;;;;;;5133342;27;19931;-54
2021/11/23 04:54:45;;;;;;;;;;;2.60;99.90;;;;;;5118306;27;19945;-55
2021/11/23 04:57:12;;;;;;;;;;;2.70;99.90;;;;;;5113581;28;19988;-54
2021/11/23 04:59:39;;;;;;;;;;;2.70;99.90;;;;;;5113381;28;19977;-55
2021/11/23 05:02:06;;;;;;;;;;;2.80;99.90;;;;;;5112926;28;19928;-54
2021/11/23 05:04:33;;;;;;;;;;;2.80;99.90;;;;;;5114227;27;19931;-54
2021/11/23 05:06:59;;;;;;;;;;;2.80;99.90;;;;;;5113488;27;20305;-55
2021/11/23 05:09:26;;;;;;;;;;;2.80;99.90;;;;;;5113135;28;19924;-54
2021/11/23 05:11:54;;;;;;;;;;;2.80;99.90;;;;;;5121097;27;19923;-54
2021/11/23 05:14:22;;;;;;;;;;;2.70;99.90;;;;;;5132589;27;19931;-54
2021/11/23 05:16:50;;;;;;;;;;;2.60;99.90;;;;;;5114125;27;19924;-54
2021/11/23 05:19:16;;;;;;;;;;;2.70;99.90;;;;;;5113734;27;19923;-54
2021/11/23 05:21:43;;;;;;;;;;;2.70;99.90;;;;;;5129480;27;20389;-54
2021/11/23 05:24:11;;;;;;;;;;;2.60;99.90;;;;;;5131418;27;19924;-55
2021/11/23 05:26:38;;;;;;;;;;;2.70;99.90;;;;;;5132670;27;20404;-53
2021/11/23 05:29:07;;;;;;;;;;;2.70;99.90;;;;;;5133425;27;19927;-54
2021/11/23 05:31:35;;;;;;;;;;;2.70;99.90;;;;;;5124811;27;20324;-54
2021/11/23 05:34:02;;;;;;;;;;;2.80;99.90;;;;;;5126981;27;19929;-54
2021/11/23 05:36:29;;;;;;;;;;;2.80;99.90;;;;;;5130171;27;19978;-54
2021/11/23 05:38:56;;;;;;;;;;;2.70;99.90;;;;;;5133134;27;20381;-54
2021/11/23 05:41:22;;;;;;;;;;;2.70;99.90;;;;;;5133078;27;19969;-54
2021/11/23 05:43:49;;;;;;;;;;;2.70;99.90;;;;;;5119412;27;19946;-55
2021/11/23 05:46:17;;;;;;;;;;;2.80;99.90;;;;;;5113706;28;19924;-53
2021/11/23 05:48:44;;;;;;;;;;;2.80;99.90;;;;;;5112412;28;19927;-55
2021/11/23 05:51:12;;;;;;;;;;;2.70;99.90;;;;;;5112087;28;20011;-55
2021/11/23 05:53:40;;;;;;;;;;;2.60;99.90;;;;;;5124374;28;20342;-55
2021/11/23 05:56:07;;;;;;;;;;;2.60;99.90;;;;;;5118666;28;19928;-54
2021/11/23 05:58:34;;;;;;;;;;;2.60;99.90;;;;;;5128297;28;19930;-52
2021/11/23 06:01:01;;;;;;;;;;;2.70;99.90;;;;;;5132666;28;19928;-54
2021/11/23 06:03:29;;;;;;;;;;;2.70;99.90;;;;;;5132756;28;19927;-53
2021/11/23 06:05:56;;;;;;;;;;;2.70;99.90;;;;;;5120995;28;19976;-54
2021/11/23 06:08:23;;;;;;;;;;;2.70;99.90;;;;;;5112567;28;19976;-55
2021/11/23 06:10:49;;;;;;;;;;;2.70;99.90;;;;;;5112013;28;19923;-54
2021/11/23 06:13:16;;;;;;;;;;;2.70;99.90;;;;;;5112822;28;19976;-53
2021/11/23 06:15:45;;;;;;;;;;;2.80;99.90;;;;;;5129277;28;20381;-55
2021/11/23 06:18:14;;;;;;;;;;;2.80;99.90;;;;;;5132628;28;20396;-55
2021/11/23 06:20:43;;;;;;;;;;;2.70;99.90;;;;;;5123540;28;19989;-53
2021/11/23 06:23:11;;;;;;;;;;;2.70;99.90;;;;;;5111881;28;19928;-54
2021/11/23 06:25:38;;;;;;;;;;;2.60;99.90;;;;;;5132236;27;20302;-55
2021/11/23 06:28:05;;;;;;;;;;;2.60;99.90;;;;;;5136916;27;19924;-54
2021/11/23 06:30:32;;;;;;;;;;;2.40;99.90;;;;;;5123045;27;19979;-54
2021/11/23 06:32:58;;;;;;;;;;;2.50;99.90;;;;;;5136455;27;19979;-54
2021/11/23 06:35:25;;;;;;;;;;;2.50;99.90;;;;;;5136521;27;19931;-55
2021/11/23 06:37:53;;;;;;;;;;;2.50;99.90;;;;;;5136419;27;19928;-53
2021/11/23 06:40:20;;;;;;;;;;;2.50;99.90;;;;;;5126643;27;19984;-55
2021/11/23 06:42:47;;;;;;;;;;;2.50;99.90;;;;;;5118914;27;20409;-53
2021/11/23 06:45:14;;;;;;;;;;;2.50;99.90;;;;;;5116003;28;19924;-55
2021/11/23 06:47:45;;;;;;;;;;;2.50;99.90;;;;;;5131446;27;20364;-54
2021/11/23 06:50:12;;;;;;;;;;;2.50;99.90;;;;;;5135434;27;19923;-53
2021/11/23 06:52:39;;;;;;;;;;;2.30;99.90;;;;;;5135082;27;19924;-54
2021/11/23 06:55:08;;;;;;;;;;;2.30;99.90;;;;;;5131037;27;19923;-54
2021/11/23 06:57:35;;;;;;;;;;;2.30;99.90;;;;;;5120248;27;20446;-53
2021/11/23 07:00:03;;;;;;;;;;;2.20;99.90;;;;;;5124193;27;19956;-53
2021/11/23 07:02:30;;;;;;;;;;;2.30;99.90;;;;;;5136098;27;19984;-52
2021/11/23 07:04:57;;;;;;;;;;;2.40;99.90;;;;;;5126772;27;20546;-52
2021/11/23 07:07:23;;;;;;;;;;;2.40;99.90;;;;;;5123115;27;19930;-52
2021/11/23 07:09:50;;;;;;;;;;;2.50;99.90;;;;;;5131195;27;20446;-54
2021/11/23 07:12:19;;;;;;;;;;;2.50;99.90;;;;;;5124703;27;19931;-54
2021/11/23 07:14:45;;;;;;;;;;;2.40;99.90;;;;;;5134512;27;19976;-53
2021/11/23 07:17:12;;;;;;;;;;;2.50;99.90;;;;;;5115150;28;20393;-55
2021/11/23 07:19:39;;;;;;;;;;;2.60;99.90;;;;;;5127712;27;19931;-54
2021/11/23 07:22:06;;;;;;;;;;;2.70;99.90;;;;;;5134880;27;19923;-55
2021/11/23 07:24:32;;;;;;;;;;;2.80;99.90;;;;;;5134109;27;19923;-55
2021/11/23 07:26:59;;;;;;;;;;;2.90;99.90;;;;;;5135486;27;19928;-54
2021/11/23 07:29:27;;;;;;;;;;;2.80;99.90;;;;;;5151475;22;19927;-47
2021/11/23 07:31:54;;;;;;;;;;;2.90;99.90;;;;;;5128683;27;19923;-48
2021/11/23 07:34:21;;;;;;;;;;;2.80;99.90;;;;;;5115114;28;19924;-48
2021/11/23 07:36:48;;;;;;;;;;;2.90;99.90;;;;;;5122302;27;19950;-49
2021/11/23 07:39:14;;;;;;;;;;;2.90;99.90;;;;;;5134084;27;19968;-48
2021/11/23 07:41:41;;;;;;;;;;;3.00;99.90;;;;;;5134762;27;19969;-48
2021/11/23 07:44:10;;;;;;;;;;;3.10;99.90;;;;;;5134191;27;19968;-49
2021/11/23 07:46:38;;;;;;;;;;;3.10;99.90;;;;;;5133778;27;19923;-49
2021/11/23 07:49:06;;;;;;;;;;;3.10;99.90;;;;;;5134222;27;19923;-48
2021/11/23 07:51:32;;;;;;;;;;;3.20;99.90;;;;;;5134769;27;19934;-48
2021/11/23 07:54:00;;;;;;;;;;;3.30;99.90;;;;;;5134938;27;20393;-48
2021/11/23 07:56:27;;;;;;;;;;;3.50;99.90;;;;;;5134952;27;19930;-48
2021/11/23 07:58:53;;;;;;;;;;;3.50;99.90;;;;;;5134162;27;20301;-48
2021/11/23 08:01:20;;;;;;;;;;;3.70;99.90;;;;;;5134392;27;19924;-48
2021/11/23 08:03:48;;;;;;;;;;;3.90;99.90;;;;;;5134758;27;19924;-49
2021/11/23 08:06:15;;;;;;;;;;;3.90;99.90;;;;;;5133855;27;19927;-48
2021/11/23 08:08:42;;;;;;;;;;;3.80;99.90;;;;;;5134460;27;19927;-49
2021/11/23 08:11:10;;;;;;;;;;;4.10;99.90;;;;;;5134245;27;19924;-48
2021/11/23 08:13:37;;;;;;;;;;;4.30;99.90;;;;;;5134128;27;19923;-49
2021/11/23 08:16:04;;;;;;;;;;;4.50;99.90;;;;;;5132693;27;20030;-49
2021/11/23 08:18:31;;;;;;;;;;;4.60;99.90;;;;;;5129285;27;19984;-49
2021/11/23 08:21:00;;;;;;;;;;;4.70;99.90;;;;;;5129406;27;19955;-49
2021/11/23 08:23:27;;;;;;;;;;;4.70;99.90;;;;;;5126413;27;19923;-48
2021/11/23 08:25:54;;;;;;;;;;;4.90;99.90;;;;;;5134265;27;19972;-48
2021/11/23 08:28:23;;;;;;;;;;;5.20;99.90;;;;;;5132532;27;20296;-48
2021/11/23 08:30:50;;;;;;;;;;;5.10;99.90;;;;;;5121557;27;19923;-49
2021/11/23 08:33:17;;;;;;;;;;;5.20;99.90;;;;;;5125530;27;19923;-48
2021/11/23 08:35:44;;;;;;;;;;;5.20;99.90;;;;;;5128912;27;20051;-48
2021/11/23 08:38:12;;;;;;;;;;;5.20;99.90;;;;;;5133817;27;19968;-49
2021/11/23 08:40:39;;;;;;;;;;;5.20;99.90;;;;;;5127589;27;19965;-48
2021/11/23 08:43:06;;;;;;;;;;;5.20;99.90;;;;;;5124391;27;19927;-48
2021/11/23 08:45:32;;;;;;;;;;;5.10;99.90;;;;;;5128111;27;19923;-48
2021/11/23 08:47:59;;;;;;;;;;;4.90;99.90;;;;;;5143785;27;19927;-49
2021/11/23 08:50:26;;;;;;;;;;;4.90;99.90;;;;;;5154332;27;19923;-48
2021/11/23 08:52:57;;;;;;;;;;;4.90;99.90;;;;;;5154539;27;20381;-49
2021/11/23 08:55:25;;;;;;;;;;;5.10;99.90;;;;;;5133943;27;19963;-48
2021/11/23 08:57:53;;;;;;;;;;;5.20;99.90;;;;;;5123272;27;19927;-48
2021/11/23 09:00:20;;;;;;;;;;;5.30;99.90;;;;;;5131402;27;19966;-47
2021/11/23 09:02:49;;;;;;;;;;;5.40;99.90;;;;;;5130399;27;19984;-48
2021/11/23 09:05:16;;;;;;;;;;;5.40;99.90;;;;;;5133574;27;19970;-48
2021/11/23 09:07:46;;;;;;;;;;;5.50;99.90;;;;;;5130738;27;19924;-47
2021/11/23 09:10:17;;;;;;;;;;;5.60;99.90;;;;;;5133281;27;20021;-47
2021/11/23 09:12:49;;;;;;;;;;;5.70;99.90;;;;;;5133185;27;19927;-48
2021/11/23 09:15:15;;;;;;;;;;;5.70;99.90;;;;;;5122716;27;19923;-48
2021/11/23 09:17:43;;;;;;;;;;;5.70;99.90;;;;;;5131192;27;20377;-48
2021/11/23 09:20:10;;;;;;;;;;;5.80;99.90;;;;;;5132378;27;20301;-49
2021/11/23 09:22:39;;;;;;;;;;;5.80;99.90;;;;;;5133363;27;19924;-48
2021/11/23 09:25:07;;;;;;;;;;;5.90;99.90;;;;;;5127450;27;19930;-49
2021/11/23 09:27:33;;;;;;;;;;;6.00;99.90;;;;;;5132364;27;19976;-49
2021/11/23 09:30:02;;;;;;;;;;;5.90;99.90;;;;;;5132254;27;19976;-49
2021/11/23 09:32:28;;;;;;;;;;;6.00;99.90;;;;;;5132262;27;19924;-49
2021/11/23 09:34:56;;;;;;;;;;;6.10;99.90;;;;;;5132274;27;19972;-49
2021/11/23 09:37:23;;;;;;;;;;;6.20;99.90;;;;;;5133084;27;19976;-49
2021/11/23 09:39:51;;;;;;;;;;;6.30;99.90;;;;;;5131480;27;20381;-49
2021/11/23 09:42:18;;;;;;;;;;;6.20;99.90;;;;;;5132357;27;20406;-49
2021/11/23 09:44:44;;;;;;;;;;;6.00;99.90;;;;;;5132676;27;19976;-49
2021/11/23 09:47:13;;;;;;;;;;;6.20;99.90;;;;;;5132283;27;20012;-49
2021/11/23 09:49:40;;;;;;;;;;;6.40;99.90;;;;;;5127008;27;19931;-49
2021/11/23 09:52:07;;;;;;;;;;;6.60;99.90;;;;;;5127642;28;20502;-49
2021/11/23 09:54:34;;;;;;;;;;;6.70;99.90;;;;;;5126161;28;19924;-48
2021/11/23 09:57:01;;;;;;;;;;;6.90;99.90;;;;;;5131623;27;19923;-49
2021/11/23 09:59:27;;;;;;;;;;;7.00;99.90;;;;;;5128662;27;20392;-49
2021/11/23 10:01:56;;;;;;;;;;;7.10;99.90;;;;;;5136686;27;19924;-49
2021/11/23 10:04:26;;;;;;;;;;;7.10;99.90;;;;;;5136778;27;19934;-48
2021/11/23 10:06:54;;;;;;;;;;;7.20;99.90;;;;;;5131751;27;19923;-49
2021/11/23 10:09:26;;;;;;;;;;;7.40;99.90;;;;;;5135965;27;19931;-48
2021/11/23 10:11:53;;;;;;;;;;;7.40;99.90;;;;;;5136126;27;19931;-49
2021/11/23 10:14:20;;;;;;;;;;;7.10;99.90;;;;;;5136848;27;19982;-49
2021/11/23 10:16:47;;;;;;;;;;;7.40;99.90;;;;;;5136542;27;20027;-49
2021/11/23 10:19:15;;;;;;;;;;;7.50;99.90;;;;;;5136269;27;20010;-49
2021/11/23 10:21:51;;;;;;;;;;;7.60;99.90;;;;;;5136358;27;20392;-49
2021/11/23 10:24:19;;;;;;;;;;;7.80;99.90;;;;;;5136488;27;19976;-49
2021/11/23 10:26:46;;;;;;;;;;;8.00;99.90;;;;;;5135484;27;20501;-49
2021/11/23 10:29:13;;;;;;;;;;;7.90;99.90;;;;;;5130622;27;20344;-49
2021/11/23 10:31:41;;;;;;;;;;;8.00;99.90;;;;;;5115605;28;20003;-49
2021/11/23 10:34:09;;;;;;;;;;;8.10;99.90;;;;;;5130327;27;20006;-48
2021/11/23 10:36:37;;;;;;;;;;;8.10;99.90;;;;;;5134357;27;19927;-49
2021/11/23 10:39:07;;;;;;;;;;;8.20;99.90;;;;;;5136225;27;19930;-48
2021/11/23 10:41:34;;;;;;;;;;;8.10;99.90;;;;;;5136560;27;19927;-48
2021/11/23 10:44:01;;;;;;;;;;;7.90;99.90;;;;;;5135675;27;19927;-49
2021/11/23 10:46:35;;;;;;;;;;;7.40;99.90;;;;;;5136262;27;19931;-49
2021/11/23 10:49:03;;;;;;;;;;;7.00;99.90;;;;;;5136134;27;20010;-47
2021/11/23 10:51:37;;;;;;;;;;;7.00;99.90;;;;;;5135786;27;20074;-49
2021/11/23 10:54:16;;;;;;;;;;;7.00;99.90;;;;;;5135997;27;19931;-49
2021/11/23 10:56:56;;;;;;;;;;;7.00;99.90;;;;;;5136086;27;19962;-48
2021/11/23 10:59:23;;;;;;;;;;;7.10;99.90;;;;;;5135939;27;19969;-48
2021/11/23 11:01:49;;;;;;;;;;;7.00;99.90;;;;;;5135476;27;19969;-49
2021/11/23 11:04:17;;;;;;;;;;;6.90;99.90;;;;;;5135476;27;19934;-48
2021/11/23 11:06:44;;;;;;;;;;;6.90;99.90;;;;;;5135791;27;19923;-48
2021/11/23 11:09:11;;;;;;;;;;;6.90;99.90;;;;;;5135783;27;19992;-48
2021/11/23 11:11:39;;;;;;;;;;;7.00;99.90;;;;;;5134838;27;19928;-49
2021/11/23 11:14:07;;;;;;;;;;;7.00;99.90;;;;;;5135251;27;19927;-49
2021/11/23 11:16:35;;;;;;;;;;;7.00;99.90;;;;;;5135550;27;19930;-47
2021/11/23 11:19:02;;;;;;;;;;;7.00;99.90;;;;;;5134232;27;19927;-48
2021/11/23 11:21:29;;;;;;;;;;;7.00;99.90;;;;;;5122296;27;19931;-49
2021/11/23 11:24:17;;;;;;;;;;;7.10;99.90;;;;;;5127918;27;19927;-48
2021/11/23 11:26:45;;;;;;;;;;;7.20;99.90;;;;;;5127364;27;20064;-48
2021/11/23 11:29:26;;;;;;;;;;;7.10;99.90;;;;;;5135064;27;20395;-49
2021/11/23 11:31:53;;;;;;;;;;;7.00;99.90;;;;;;5135110;27;19927;-48
2021/11/23 11:34:24;;;;;;;;;;;7.20;99.90;;;;;;5128664;27;19977;-49
2021/11/23 11:36:59;;;;;;;;;;;7.30;99.90;;;;;;5132141;27;19976;-49
2021/11/23 11:39:44;;;;;;;;;;;7.30;99.90;;;;;;5134871;27;19923;-49
2021/11/23 11:42:12;;;;;;;;;;;7.20;99.90;;;;;;5135119;27;19986;-49
2021/11/23 11:44:40;;;;;;;;;;;7.20;99.90;;;;;;5134964;27;19924;-49
2021/11/23 11:47:11;;;;;;;;;;;7.20;99.90;;;;;;5134960;27;19972;-49
2021/11/23 11:49:53;;;;;;;;;;;7.10;99.90;;;;;;5134670;27;20343;-49
2021/11/23 11:52:21;;;;;;;;;;;7.00;99.90;;;;;;5134820;27;19930;-49
2021/11/23 11:55:14;;;;;;;;;;;7.00;99.90;;;;;;5134343;27;20385;-49
2021/11/23 11:57:42;;;;;;;;;;;7.10;99.90;;;;;;5134772;27;19927;-48
2021/11/23 12:00:28;;;;;;;;;;;7.10;99.90;;;;;;5134551;27;19923;-48
2021/11/23 12:02:55;;;;;;;;;;;7.10;99.90;;;;;;5134326;27;20036;-49
2021/11/23 12:05:23;;;;;;;;;;;7.10;99.90;;;;;;5134057;27;19930;-48
2021/11/23 12:07:52;;;;;;;;;;;7.10;99.90;;;;;;5134878;27;19980;-49
2021/11/23 12:10:20;;;;;;;;;;;7.10;99.90;;;;;;5134297;27;20305;-49
2021/11/23 12:12:58;;;;;;;;;;;7.30;99.90;;;;;;5133792;27;19924;-49
2021/11/23 12:15:35;;;;;;;;;;;7.20;99.90;;;;;;5134220;27;20354;-49
2021/11/23 12:18:17;;;;;;;;;;;7.30;99.90;;;;;;5134617;27;19976;-49
2021/11/23 12:20:50;;;;;;;;;;;7.50;99.90;;;;;;5131191;27;19924;-48
2021/11/23 12:23:20;;;;;;;;;;;7.70;99.90;;;;;;5133589;27;20392;-49
2021/11/23 12:25:51;;;;;;;;;;;7.70;99.90;;;;;;5134591;27;19923;-49
2021/11/23 12:28:20;;;;;;;;;;;7.50;99.90;;;;;;5134677;27;20345;-48
2021/11/23 12:30:47;;;;;;;;;;;7.60;99.90;;;;;;5133954;27;19929;-49
2021/11/23 12:33:14;;;;;;;;;;;7.40;99.90;;;;;;5134718;27;19972;-49
2021/11/23 12:35:41;;;;;;;;;;;7.40;99.90;;;;;;5133680;27;19968;-48
2021/11/23 12:38:08;;;;;;;;;;;7.40;99.90;;;;;;5134037;27;19957;-48
2021/11/23 12:40:35;;;;;;;;;;;7.50;99.90;;;;;;5133890;27;19976;-49
2021/11/23 12:43:04;;;;;;;;;;;7.40;99.90;;;;;;5134492;27;19923;-49
2021/11/23 12:45:40;;;;;;;;;;;7.20;99.90;;;;;;5134094;27;20022;-49
2021/11/23 12:48:09;;;;;;;;;;;7.30;99.90;;;;;;5134261;27;19923;-49
2021/11/23 12:50:36;;;;;;;;;;;7.50;99.90;;;;;;5113517;28;20004;-49
2021/11/23 12:53:04;;;;;;;;;;;7.60;99.90;;;;;;5113737;28;19936;-49
2021/11/23 12:55:30;;;;;;;;;;;7.70;99.90;;;;;;5125195;27;20332;-49
2021/11/23 12:57:59;;;;;;;;;;;7.70;99.90;;;;;;5133528;27;19923;-49
2021/11/23 13:00:26;;;;;;;;;;;7.80;99.90;;;;;;5133577;27;20330;-49
2021/11/23 13:02:56;;;;;;;;;;;7.60;99.90;;;;;;5133446;27;19931;-49
2021/11/23 13:05:24;;;;;;;;;;;7.70;99.90;;;;;;5133566;27;19924;-49
2021/11/23 13:07:52;;;;;;;;;;;7.70;99.90;;;;;;5133960;27;19928;-49
2021/11/23 13:10:20;;;;;;;;;;;7.60;99.90;;;;;;5133692;27;20346;-47
2021/11/23 13:12:48;;;;;;;;;;;7.50;99.90;;;;;;5133435;27;19958;-49
2021/11/23 13:15:16;;;;;;;;;;;7.60;99.90;;;;;;5132806;27;19923;-49
2021/11/23 13:17:50;;;;;;;;;;;7.60;99.90;;;;;;5132969;27;19927;-48
2021/11/23 13:20:20;;;;;;;;;;;7.90;99.90;;;;;;5133205;27;20022;-49
2021/11/23 13:22:48;;;;;;;;;;;7.90;99.90;;;;;;5133324;27;19927;-49
2021/11/23 13:25:15;;;;;;;;;;;7.90;99.90;;;;;;5132833;27;19923;-49
2021/11/23 13:27:42;;;;;;;;;;;7.90;99.90;;;;;;5133063;27;19928;-48
2021/11/23 13:30:28;;;;;;;;;;;7.90;99.90;;;;;;5154925;22;20408;-55
2021/11/23 13:32:54;;;;;;;;;;;7.90;99.90;;;;;;5126503;27;19924;-55
2021/11/23 13:35:23;;;;;;;;;;;7.90;99.90;;;;;;5128367;28;19924;-55
2021/11/23 13:37:50;;;;;;;;;;;7.70;99.90;;;;;;5128507;28;19976;-56
2021/11/23 13:40:18;;;;;;;;;;;7.60;99.90;;;;;;5113254;28;19963;-55
2021/11/23 13:42:44;;;;;;;;;;;7.30;99.90;;;;;;5106723;28;20173;-55
2021/11/23 13:45:12;;;;;;;;;;;7.30;99.90;;;;;;5114508;28;19931;-54
2021/11/23 13:47:39;;;;;;;;;;;7.30;99.90;;;;;;5092345;28;19967;-55
2021/11/23 13:50:06;;;;;;;;;;;7.40;99.90;;;;;;5099458;28;19928;-54
2021/11/23 13:52:34;;;;;;;;;;;7.60;99.90;;;;;;5112698;28;19924;-54
2021/11/23 13:55:02;;;;;;;;;;;7.70;99.90;;;;;;5112701;28;20003;-54
2021/11/23 13:57:30;;;;;;;;;;;7.70;99.90;;;;;;5112534;28;19924;-55
2021/11/23 13:59:58;;;;;;;;;;;7.80;99.90;;;;;;5112412;28;20005;-55
2021/11/23 14:02:42;;;;;;;;;;;7.80;99.90;;;;;;5112092;28;19976;-55
2021/11/23 14:05:09;;;;;;;;;;;7.80;99.90;;;;;;5112429;28;19928;-55
2021/11/23 14:07:49;;;;;;;;;;;7.70;99.90;;;;;;5112632;28;19949;-54
2021/11/23 14:10:26;;;;;;;;;;;7.80;99.90;;;;;;5112665;28;20359;-56
2021/11/23 14:12:53;;;;;;;;;;;7.80;99.90;;;;;;5112717;28;19928;-55
2021/11/23 14:15:22;;;;;;;;;;;7.90;99.90;;;;;;5111976;28;20006;-54
2021/11/23 14:18:11;;;;;;;;;;;8.00;99.90;;;;;;5112339;28;19934;-55
2021/11/23 14:20:49;;;;;;;;;;;8.00;99.90;;;;;;5112190;28;19988;-55
2021/11/23 14:23:19;;;;;;;;;;;8.00;99.90;;;;;;5112508;28;20014;-54
2021/11/23 14:25:56;;;;;;;;;;;7.90;99.90;;;;;;5113217;28;19924;-54
2021/11/23 14:28:23;;;;;;;;;;;7.80;99.90;;;;;;5112276;28;19970;-55
2021/11/23 14:30:50;;;;;;;;;;;7.80;99.90;;;;;;5111850;28;20342;-54
2021/11/23 14:33:19;;;;;;;;;;;7.80;99.90;;;;;;5112653;28;20342;-56
2021/11/23 14:35:45;;;;;;;;;;;7.80;99.90;;;;;;5112043;28;19977;-55